Time;durP1;ratioP1;P1;durP2;ratioP2;P2;SDS_P1;SDS_P2;PMS_P1;PMS_P2;Temp;Humidity;BMP_temperature;BMP_pressure;BME280_temperature;BME280_humidity;BME280_pressure;Samples;Min_cycle;Max_cycle;Signal;HPM_P1;HPM_P2
2023/09/08 00:00:31;;;;;;;5.87;4.97;;;24.10;61.20;;;;;;5050666;28;20521;-68
2023/09/08 00:02:57;;;;;;;5.40;4.80;;;24.10;61.10;;;;;;5050683;28;20656;-69
2023/09/08 00:05:23;;;;;;;7.30;5.33;;;24.10;61.20;;;;;;5050613;28;20175;-69
2023/09/08 00:07:48;;;;;;;4.97;4.50;;;24.10;61.20;;;;;;5050477;28;21099;-69
2023/09/08 00:10:14;;;;;;;6.17;5.10;;;24.10;61.10;;;;;;5050503;28;20194;-69
2023/09/08 00:12:39;;;;;;;5.63;4.70;;;24.10;61.10;;;;;;5032540;28;20309;-69
2023/09/08 00:15:06;;;;;;;4.93;4.53;;;24.10;61.10;;;;;;5050487;28;20205;-70
2023/09/08 00:17:32;;;;;;;7.50;5.20;;;24.10;61.10;;;;;;5050769;28;20182;-69
2023/09/08 00:19:58;;;;;;;6.57;5.00;;;24.10;61.10;;;;;;5050360;28;20421;-69
2023/09/08 00:22:23;;;;;;;5.40;4.73;;;24.10;61.10;;;;;;5050717;28;20178;-69
2023/09/08 00:24:49;;;;;;;6.23;5.67;;;24.10;61.10;;;;;;5050356;28;20167;-69
2023/09/08 00:27:14;;;;;;;5.57;4.97;;;24.10;61.10;;;;;;5050589;28;20202;-69
2023/09/08 00:29:40;;;;;;;5.17;4.43;;;24.10;61.10;;;;;;5050287;28;20246;-69
2023/09/08 00:32:06;;;;;;;6.60;5.67;;;24.10;61.10;;;;;;5036125;28;20240;-69
2023/09/08 00:34:31;;;;;;;5.60;4.50;;;24.10;61.00;;;;;;5054053;28;20191;-69
2023/09/08 00:36:57;;;;;;;4.80;4.40;;;24.10;61.00;;;;;;5054129;28;20254;-69
2023/09/08 00:39:23;;;;;;;5.80;5.20;;;24.10;61.00;;;;;;5053922;28;20262;-69
2023/09/08 00:41:48;;;;;;;6.60;5.40;;;24.10;61.00;;;;;;5054291;28;20220;-69
2023/09/08 00:44:14;;;;;;;5.93;4.90;;;24.10;61.00;;;;;;5053968;28;20171;-69
2023/09/08 00:46:40;;;;;;;5.93;4.80;;;24.10;61.00;;;;;;5053964;28;20634;-69
2023/09/08 00:49:06;;;;;;;6.40;5.20;;;24.10;61.00;;;;;;5053707;28;20855;-70
2023/09/08 00:51:31;;;;;;;6.43;5.47;;;24.10;60.90;;;;;;5053702;28;20450;-69
2023/09/08 00:53:57;;;;;;;5.80;5.20;;;24.10;60.90;;;;;;5053738;28;20467;-69
2023/09/08 00:56:23;;;;;;;6.80;4.87;;;24.10;60.90;;;;;;5053758;28;20241;-69
2023/09/08 00:58:49;;;;;;;4.70;4.30;;;24.10;60.90;;;;;;5053569;28;20202;-68
2023/09/08 01:01:17;;;;;;;4.80;4.40;;;24.10;60.80;;;;;;5053909;28;20455;-69
2023/09/08 01:03:43;;;;;;;5.40;4.90;;;24.10;60.80;;;;;;5053639;28;20194;-69
2023/09/08 01:06:09;;;;;;;5.10;4.60;;;24.10;60.80;;;;;;5053868;28;20933;-69
2023/09/08 01:08:36;;;;;;;5.50;5.00;;;24.10;60.80;;;;;;5035652;28;20421;-69
2023/09/08 01:11:02;;;;;;;6.07;5.47;;;24.10;60.80;;;;;;5053499;28;20451;-69
2023/09/08 01:13:28;;;;;;;5.67;4.83;;;24.10;60.80;;;;;;5053608;28;20543;-69
2023/09/08 01:15:53;;;;;;;5.80;5.23;;;24.10;60.80;;;;;;5053679;28;20500;-69
2023/09/08 01:18:19;;;;;;;5.17;4.67;;;24.10;60.70;;;;;;5053275;28;20245;-69
2023/09/08 01:21:22;;;;;;;4.90;4.50;;;24.10;60.70;;;;;;5035582;28;20270;-69
2023/09/08 01:24:04;;;;;;;5.30;4.87;;;24.10;60.70;;;;;;5053314;28;20200;-68
2023/09/08 01:26:36;;;;;;;5.03;4.53;;;24.10;60.70;;;;;;5053270;28;20394;-69
2023/09/08 01:29:04;;;;;;;5.40;4.83;;;24.10;60.70;;;;;;5053369;28;20448;-69
2023/09/08 01:31:30;;;;;;;5.40;4.90;;;24.10;60.80;;;;;;5053145;28;20816;-69
2023/09/08 01:33:56;;;;;;;5.87;5.37;;;24.10;60.70;;;;;;5051735;28;20511;-68
2023/09/08 01:36:22;;;;;;;5.73;5.23;;;24.10;60.60;;;;;;5052744;28;20167;-68
2023/09/08 01:38:47;;;;;;;6.10;4.87;;;24.10;60.60;;;;;;5051107;28;20437;-69
2023/09/08 01:41:13;;;;;;;5.27;4.87;;;24.10;60.60;;;;;;5052627;28;20198;-69
2023/09/08 01:43:38;;;;;;;5.70;5.20;;;24.10;60.60;;;;;;5051175;28;20167;-70
2023/09/08 01:46:04;;;;;;;5.40;4.90;;;24.00;60.40;;;;;;5052705;28;20175;-69
2023/09/08 01:48:30;;;;;;;6.53;5.93;;;24.10;60.60;;;;;;5052651;28;20198;-69
2023/09/08 01:50:55;;;;;;;5.20;4.70;;;24.10;60.60;;;;;;5052719;28;20236;-69
2023/09/08 01:53:21;;;;;;;6.50;5.90;;;24.10;60.40;;;;;;5052920;28;20203;-68
2023/09/08 01:55:46;;;;;;;6.20;5.10;;;24.10;60.40;;;;;;5053241;28;20224;-68
2023/09/08 01:58:12;;;;;;;5.70;5.10;;;24.10;60.30;;;;;;5052521;28;20202;-69
2023/09/08 02:00:37;;;;;;;5.07;4.60;;;24.10;60.40;;;;;;5052570;28;20586;-69
2023/09/08 02:03:03;;;;;;;4.87;4.47;;;24.00;60.20;;;;;;5052531;28;20180;-69
2023/09/08 02:05:29;;;;;;;5.60;5.10;;;24.00;60.20;;;;;;5052528;28;20296;-69
2023/09/08 02:07:56;;;;;;;5.60;5.10;;;24.00;60.20;;;;;;5052381;28;20206;-69
2023/09/08 02:10:22;;;;;;;5.93;5.43;;;24.10;60.20;;;;;;5052339;28;20171;-69
2023/09/08 02:12:47;;;;;;;5.93;5.43;;;24.10;60.20;;;;;;5052444;28;20453;-69
2023/09/08 02:15:13;;;;;;;5.70;5.20;;;24.10;60.20;;;;;;5034319;28;20179;-69
2023/09/08 02:17:38;;;;;;;6.03;5.50;;;24.00;60.10;;;;;;5034184;28;20182;-69
2023/09/08 02:20:05;;;;;;;5.93;5.33;;;24.10;60.20;;;;;;5052196;28;20171;-69
2023/09/08 02:22:30;;;;;;;5.60;5.10;;;24.10;60.20;;;;;;5052162;28;20170;-69
2023/09/08 02:24:57;;;;;;;5.80;5.30;;;24.10;60.10;;;;;;5052108;28;20766;-69
2023/09/08 02:27:23;;;;;;;5.53;5.10;;;24.00;60.00;;;;;;5052007;28;20190;-69
2023/09/08 02:29:49;;;;;;;6.00;5.40;;;24.10;60.10;;;;;;5051911;28;20464;-70
2023/09/08 02:32:14;;;;;;;6.20;5.60;;;24.00;60.00;;;;;;5051918;28;20175;-69
2023/09/08 02:34:42;;;;;;;6.57;5.90;;;24.00;60.00;;;;;;5051829;28;20684;-69
2023/09/08 02:37:08;;;;;;;6.63;5.93;;;24.00;60.00;;;;;;5052092;28;20179;-69
2023/09/08 02:39:34;;;;;;;6.30;5.63;;;24.00;60.00;;;;;;5051737;28;20491;-68
2023/09/08 02:41:59;;;;;;;6.60;6.00;;;24.00;59.90;;;;;;5051798;28;20640;-70
2023/09/08 02:44:26;;;;;;;6.50;5.90;;;24.00;59.90;;;;;;5051737;28;20421;-68
2023/09/08 02:46:52;;;;;;;6.20;5.67;;;24.00;60.60;;;;;;5051661;28;20178;-69
2023/09/08 02:49:17;;;;;;;7.37;6.67;;;24.00;59.90;;;;;;5051412;28;20463;-69
2023/09/08 02:51:43;;;;;;;5.57;5.07;;;24.00;59.80;;;;;;5051506;28;20182;-69
2023/09/08 02:54:09;;;;;;;6.03;5.43;;;24.00;59.80;;;;;;5050781;28;20255;-69
2023/09/08 02:56:34;;;;;;;5.83;5.23;;;24.00;59.70;;;;;;5051456;28;20635;-69
2023/09/08 02:59:00;;;;;;;6.00;5.40;;;24.00;59.60;;;;;;5051435;28;20195;-68
2023/09/08 03:01:25;;;;;;;7.57;5.50;;;24.00;59.60;;;;;;5051347;28;20178;-69
2023/09/08 03:03:51;;;;;;;6.27;5.67;;;24.00;59.60;;;;;;5051329;28;20189;-69
2023/09/08 03:06:20;;;;;;;6.87;5.70;;;24.00;59.60;;;;;;5051632;28;20202;-68
2023/09/08 03:08:45;;;;;;;6.80;6.20;;;24.00;59.60;;;;;;5051273;28;20187;-69
2023/09/08 03:11:12;;;;;;;5.90;5.40;;;24.00;59.60;;;;;;5051246;28;20898;-69
2023/09/08 03:13:37;;;;;;;7.07;6.37;;;24.00;59.50;;;;;;5051195;28;20256;-69
2023/09/08 03:16:08;;;;;;;5.80;5.30;;;24.00;59.50;;;;;;5051120;28;20413;-69
2023/09/08 03:18:36;;;;;;;6.27;5.60;;;24.00;59.40;;;;;;5051044;28;20269;-69
2023/09/08 03:21:08;;;;;;;6.13;5.53;;;24.00;59.40;;;;;;5051024;28;20940;-69
2023/09/08 03:23:35;;;;;;;7.77;6.17;;;24.00;59.30;;;;;;5051077;28;20488;-69
2023/09/08 03:26:01;;;;;;;6.30;5.80;;;24.00;59.30;;;;;;5051011;28;20405;-69
2023/09/08 03:28:26;;;;;;;6.53;5.93;;;24.00;59.30;;;;;;5050876;28;20471;-69
2023/09/08 03:30:52;;;;;;;6.30;5.70;;;24.00;59.30;;;;;;5050985;28;20178;-69
2023/09/08 03:33:17;;;;;;;6.10;5.53;;;24.00;59.30;;;;;;5050816;28;20669;-70
2023/09/08 03:35:43;;;;;;;6.07;5.60;;;24.00;59.20;;;;;;5050888;28;20175;-69
2023/09/08 03:38:09;;;;;;;6.03;5.43;;;24.00;59.20;;;;;;5051086;28;20235;-69
2023/09/08 03:40:34;;;;;;;6.70;6.00;;;24.00;59.70;;;;;;5050834;28;20178;-69
2023/09/08 03:43:00;;;;;;;5.97;5.53;;;24.00;59.10;;;;;;5032820;28;20670;-69
2023/09/08 03:45:25;;;;;;;6.60;6.00;;;24.00;59.10;;;;;;5050768;28;20166;-69
2023/09/08 03:47:51;;;;;;;5.90;5.40;;;24.00;59.10;;;;;;5033027;28;20183;-69
2023/09/08 03:50:16;;;;;;;6.80;6.20;;;24.00;59.20;;;;;;5050656;28;20255;-68
2023/09/08 03:52:42;;;;;;;6.37;5.87;;;24.00;59.10;;;;;;5050598;28;20179;-69
2023/09/08 03:55:08;;;;;;;6.53;5.90;;;24.00;59.10;;;;;;5051012;28;20182;-69
2023/09/08 03:57:33;;;;;;;5.80;5.30;;;24.00;59.00;;;;;;5050688;28;20544;-69
2023/09/08 03:59:59;;;;;;;6.27;5.70;;;23.90;59.00;;;;;;5050551;28;20183;-69
2023/09/08 04:02:24;;;;;;;6.00;5.50;;;24.00;59.50;;;;;;5050669;28;20170;-68
2023/09/08 04:04:50;;;;;;;7.10;6.50;;;24.00;58.90;;;;;;5052747;28;20175;-69
2023/09/08 04:07:15;;;;;;;5.73;5.23;;;23.90;58.80;;;;;;5036739;28;20555;-69
2023/09/08 04:09:42;;;;;;;6.50;5.90;;;24.00;58.90;;;;;;5054532;28;20265;-68
2023/09/08 04:12:09;;;;;;;6.63;5.93;;;23.90;58.80;;;;;;5054564;28;20163;-69
2023/09/08 04:14:36;;;;;;;5.80;5.30;;;23.90;58.80;;;;;;5054420;28;20449;-68
2023/09/08 04:17:01;;;;;;;6.87;6.27;;;23.90;58.70;;;;;;5054549;28;20414;-69
2023/09/08 04:19:27;;;;;;;6.60;6.10;;;24.00;58.80;;;;;;5054319;28;20448;-69
2023/09/08 04:21:52;;;;;;;6.33;5.73;;;23.90;58.70;;;;;;5054389;28;20639;-69
2023/09/08 04:24:19;;;;;;;6.73;5.93;;;24.00;58.80;;;;;;5054306;28;20616;-69
2023/09/08 04:26:45;;;;;;;5.87;5.37;;;24.00;58.80;;;;;;5054343;28;20709;-69
2023/09/08 04:29:11;;;;;;;7.30;6.60;;;23.90;58.70;;;;;;5054549;28;20437;-69
2023/09/08 04:31:37;;;;;;;8.10;6.53;;;23.90;58.70;;;;;;5054286;28;20182;-69
2023/09/08 04:34:02;;;;;;;9.47;6.30;;;23.90;58.70;;;;;;5055896;28;20199;-68
2023/09/08 04:36:30;;;;;;;7.47;6.77;;;23.90;58.70;;;;;;5056463;28;20195;-70
2023/09/08 04:38:56;;;;;;;6.83;6.23;;;23.90;58.70;;;;;;5055730;28;20189;-69
2023/09/08 04:41:21;;;;;;;7.23;6.53;;;23.90;58.60;;;;;;5036101;28;20413;-69
2023/09/08 04:43:47;;;;;;;7.70;6.70;;;23.90;58.60;;;;;;5054103;28;20179;-69
2023/09/08 04:46:13;;;;;;;7.33;6.63;;;23.90;58.60;;;;;;5054058;28;20224;-69
2023/09/08 04:48:38;;;;;;;7.00;6.30;;;23.90;58.50;;;;;;5053834;28;20675;-69
2023/09/08 04:51:04;;;;;;;8.40;7.60;;;23.90;58.50;;;;;;5054141;28;20182;-69
2023/09/08 04:53:29;;;;;;;7.10;6.43;;;23.90;58.50;;;;;;5053775;28;20195;-69
2023/09/08 04:55:55;;;;;;;7.90;7.10;;;23.90;58.50;;;;;;5053747;28;20245;-69
2023/09/08 04:58:21;;;;;;;7.03;6.33;;;23.90;58.40;;;;;;5053687;28;20217;-68
2023/09/08 05:00:46;;;;;;;6.20;5.70;;;23.90;58.40;;;;;;5053700;28;20225;-68
2023/09/08 05:03:12;;;;;;;6.60;6.00;;;23.90;58.50;;;;;;5053664;28;20179;-69
2023/09/08 05:05:39;;;;;;;6.80;6.30;;;23.90;58.40;;;;;;5053655;28;20194;-69
2023/09/08 05:08:04;;;;;;;6.73;6.13;;;23.90;58.40;;;;;;5053521;28;20202;-68
2023/09/08 05:10:30;;;;;;;6.90;6.27;;;23.90;58.40;;;;;;5053530;28;20410;-69
2023/09/08 05:12:56;;;;;;;7.70;7.00;;;23.90;58.40;;;;;;5053402;28;20199;-69
2023/09/08 05:15:21;;;;;;;6.90;5.87;;;23.90;58.40;;;;;;5035215;28;20210;-68
2023/09/08 05:17:47;;;;;;;7.00;6.40;;;23.90;58.40;;;;;;5053123;28;20182;-69
2023/09/08 05:20:13;;;;;;;6.90;6.23;;;23.90;58.30;;;;;;5053335;28;20601;-69
2023/09/08 05:22:39;;;;;;;6.97;6.37;;;23.90;58.30;;;;;;5053278;28;20175;-70
2023/09/08 05:25:05;;;;;;;8.17;7.37;;;23.90;58.40;;;;;;5053256;28;20178;-69
2023/09/08 05:27:31;;;;;;;7.70;6.50;;;23.80;58.30;;;;;;5053196;28;20406;-68
2023/09/08 05:29:57;;;;;;;6.87;6.17;;;23.90;58.30;;;;;;5053311;28;20199;-69
2023/09/08 05:32:23;;;;;;;6.00;5.40;;;23.90;58.30;;;;;;5053078;28;20414;-68
2023/09/08 05:34:48;;;;;;;7.60;6.90;;;23.90;58.30;;;;;;5053293;28;20297;-69
2023/09/08 05:37:14;;;;;;;6.83;6.17;;;23.90;58.90;;;;;;5053043;28;20497;-69
2023/09/08 05:39:41;;;;;;;6.70;6.10;;;23.90;58.40;;;;;;5052961;28;20385;-67
2023/09/08 05:42:06;;;;;;;7.03;6.43;;;23.90;58.30;;;;;;5053034;28;20171;-68
2023/09/08 05:44:32;;;;;;;7.33;6.63;;;23.90;58.40;;;;;;5052827;28;20413;-69
2023/09/08 05:46:57;;;;;;;8.30;6.57;;;23.80;58.30;;;;;;5052875;28;20186;-69
2023/09/08 05:49:23;;;;;;;7.30;6.60;;;23.90;58.40;;;;;;5052786;28;20264;-69
2023/09/08 05:51:49;;;;;;;7.07;6.40;;;23.90;58.30;;;;;;5052806;28;20178;-68
2023/09/08 05:54:15;;;;;;;7.70;6.47;;;23.90;58.30;;;;;;5052649;28;20182;-69
2023/09/08 05:56:40;;;;;;;9.53;6.70;;;23.90;58.30;;;;;;5052691;28;20918;-69
2023/09/08 05:59:06;;;;;;;8.33;7.63;;;23.90;58.30;;;;;;5052560;28;20194;-69
2023/09/08 06:01:32;;;;;;;7.80;7.10;;;23.80;58.20;;;;;;5052798;28;20225;-68
2023/09/08 06:03:58;;;;;;;7.00;6.30;;;23.90;58.30;;;;;;5052550;28;20182;-69
2023/09/08 06:06:25;;;;;;;7.23;6.60;;;23.90;58.30;;;;;;5052468;28;20410;-70
2023/09/08 06:08:50;;;;;;;10.20;5.93;;;23.90;58.30;;;;;;5052408;28;20274;-68
2023/09/08 06:11:16;;;;;;;6.90;6.20;;;23.90;58.20;;;;;;5034467;28;21207;-69
2023/09/08 06:13:42;;;;;;;6.53;5.90;;;23.90;58.20;;;;;;5052314;28;20556;-69
2023/09/08 06:16:08;;;;;;;7.30;6.60;;;23.90;58.20;;;;;;5052354;28;20442;-69
2023/09/08 06:18:39;;;;;;;7.20;6.50;;;23.90;58.20;;;;;;5052262;28;20214;-69
2023/09/08 06:21:08;;;;;;;6.50;5.90;;;23.80;58.10;;;;;;5052513;28;20167;-69
2023/09/08 06:23:34;;;;;;;6.37;5.77;;;23.80;58.10;;;;;;5052219;28;20445;-69
2023/09/08 06:26:00;;;;;;;6.70;6.10;;;23.90;58.30;;;;;;5051919;28;20417;-69
2023/09/08 06:28:29;;;;;;;6.40;5.80;;;23.80;58.30;;;;;;5051342;28;20494;-69
2023/09/08 06:30:55;;;;;;;5.93;5.43;;;23.80;58.40;;;;;;5052113;28;20413;-69
2023/09/08 06:33:22;;;;;;;7.27;6.60;;;23.90;58.60;;;;;;5051868;28;20980;-69
2023/09/08 06:35:47;;;;;;;6.60;6.07;;;23.90;58.70;;;;;;5052087;28;20175;-69
2023/09/08 06:38:13;;;;;;;7.17;6.47;;;23.80;58.60;;;;;;5051955;28;20440;-69
2023/09/08 06:40:39;;;;;;;6.73;6.13;;;23.80;58.60;;;;;;5051912;28;20205;-69
2023/09/08 06:43:04;;;;;;;6.60;5.97;;;23.80;58.70;;;;;;5051936;28;20659;-68
2023/09/08 06:45:30;;;;;;;6.90;6.30;;;23.90;58.80;;;;;;5051703;28;20623;-68
2023/09/08 06:47:56;;;;;;;6.07;5.43;;;23.90;58.90;;;;;;5051610;28;20226;-68
2023/09/08 06:50:30;;;;;;;6.67;6.07;;;23.90;58.90;;;;;;5068288;28;20515;-67
2023/09/08 06:52:55;;;;;;;7.00;6.30;;;23.90;58.80;;;;;;5068230;28;20496;-67
2023/09/08 06:55:21;;;;;;;5.60;5.17;;;23.90;58.90;;;;;;5067944;28;20851;-68
2023/09/08 06:57:46;;;;;;;5.70;5.20;;;23.90;58.90;;;;;;5066326;28;20182;-69
2023/09/08 07:00:13;;;;;;;6.70;5.93;;;23.90;58.90;;;;;;5038516;28;20210;-68
2023/09/08 07:02:41;;;;;;;6.23;5.63;;;23.90;58.90;;;;;;5037154;28;20229;-68
2023/09/08 07:05:08;;;;;;;6.60;6.00;;;23.90;58.80;;;;;;5037175;28;20499;-67
2023/09/08 07:07:37;;;;;;;5.97;5.47;;;23.90;58.80;;;;;;5038519;28;20413;-66
2023/09/08 07:10:06;;;;;;;6.00;5.50;;;23.90;58.70;;;;;;5037354;28;20454;-67
2023/09/08 07:12:31;;;;;;;5.67;5.17;;;23.90;58.80;;;;;;5036722;28;20495;-68
2023/09/08 07:14:58;;;;;;;6.47;5.90;;;23.90;58.90;;;;;;5038309;28;20492;-68
2023/09/08 07:17:23;;;;;;;6.60;6.00;;;23.90;58.90;;;;;;5036200;28;20644;-67
2023/09/08 07:19:50;;;;;;;5.67;5.17;;;23.90;58.90;;;;;;5039114;28;20429;-67
2023/09/08 07:22:15;;;;;;;6.13;5.63;;;23.90;58.90;;;;;;5047457;28;20210;-67
2023/09/08 07:24:41;;;;;;;7.20;6.47;;;23.90;58.80;;;;;;5047654;28;20433;-67
2023/09/08 07:27:07;;;;;;;6.27;5.67;;;23.90;58.90;;;;;;5047614;28;20179;-67
2023/09/08 07:29:32;;;;;;;6.10;5.60;;;23.90;59.00;;;;;;5047411;28;20206;-67
2023/09/08 07:31:58;;;;;;;6.37;5.77;;;23.90;59.00;;;;;;5047495;28;20578;-68
2023/09/08 07:34:24;;;;;;;5.50;5.00;;;23.90;59.00;;;;;;5047434;28;20652;-68
2023/09/08 07:36:49;;;;;;;6.40;5.80;;;23.90;59.00;;;;;;5047443;28;20179;-68
2023/09/08 07:39:15;;;;;;;6.03;5.47;;;23.90;59.10;;;;;;5046527;28;20616;-68
2023/09/08 07:41:41;;;;;;;6.13;5.30;;;23.90;59.10;;;;;;5047327;28;20175;-68
2023/09/08 07:44:07;;;;;;;6.70;5.70;;;23.90;59.10;;;;;;5047249;28;20221;-67
2023/09/08 07:46:33;;;;;;;5.90;5.30;;;23.90;59.20;;;;;;5046978;28;20171;-68
2023/09/08 07:48:59;;;;;;;6.30;5.70;;;23.90;59.20;;;;;;5046774;28;20469;-68
2023/09/08 07:51:25;;;;;;;7.17;5.53;;;23.90;59.20;;;;;;5047359;28;20648;-67
2023/09/08 07:53:53;;;;;;;6.60;6.00;;;23.90;59.30;;;;;;5047049;28;20419;-67
2023/09/08 07:56:18;;;;;;;5.50;5.00;;;23.90;59.30;;;;;;5047057;28;20413;-69
2023/09/08 07:58:44;;;;;;;7.00;6.30;;;23.90;59.30;;;;;;5045545;28;20445;-68
2023/09/08 08:01:09;;;;;;;7.43;5.43;;;23.90;59.30;;;;;;5037188;28;20179;-68
2023/09/08 08:03:35;;;;;;;6.13;5.60;;;23.90;59.40;;;;;;5033635;28;20171;-67
2023/09/08 08:06:01;;;;;;;6.20;5.63;;;23.90;59.40;;;;;;5033338;28;20168;-68
2023/09/08 08:08:27;;;;;;;6.70;6.10;;;24.00;59.50;;;;;;5026039;28;20504;-68
2023/09/08 08:10:53;;;;;;;5.67;5.17;;;24.00;59.50;;;;;;5023109;28;20537;-68
2023/09/08 08:13:18;;;;;;;6.43;5.83;;;23.90;59.40;;;;;;5022471;28;20176;-68
2023/09/08 08:15:47;;;;;;;6.27;5.73;;;24.00;59.50;;;;;;5024517;28;20199;-67
2023/09/08 08:18:12;;;;;;;6.53;5.93;;;23.90;59.40;;;;;;5022921;28;20191;-67
2023/09/08 08:20:39;;;;;;;6.10;5.60;;;24.00;59.60;;;;;;5022556;28;20410;-66
2023/09/08 08:23:06;;;;;;;6.00;5.50;;;24.00;59.60;;;;;;5024103;28;20403;-69
2023/09/08 08:25:32;;;;;;;6.43;5.90;;;24.00;59.60;;;;;;5019722;28;20411;-68
2023/09/08 08:28:00;;;;;;;6.00;5.40;;;24.00;59.60;;;;;;5013436;28;20439;-68
2023/09/08 08:30:26;;;;;;;6.17;5.67;;;24.00;59.60;;;;;;5013180;28;20492;-68
2023/09/08 08:32:53;;;;;;;6.50;5.90;;;24.00;59.60;;;;;;5013253;28;20420;-68
2023/09/08 08:35:19;;;;;;;6.03;5.47;;;24.00;59.60;;;;;;5013444;28;21059;-68
2023/09/08 08:37:44;;;;;;;7.13;5.30;;;24.00;59.60;;;;;;5013179;28;20785;-67
2023/09/08 08:40:13;;;;;;;6.03;5.53;;;24.00;59.70;;;;;;5012892;28;20420;-68
2023/09/08 08:42:39;;;;;;;7.43;6.33;;;24.00;59.70;;;;;;5013120;28;20541;-68
2023/09/08 08:45:06;;;;;;;6.23;5.73;;;24.00;59.70;;;;;;5013052;28;20422;-67
2023/09/08 08:47:32;;;;;;;5.90;5.40;;;24.00;59.70;;;;;;5013025;28;20404;-67
2023/09/08 08:49:59;;;;;;;6.27;5.30;;;24.00;59.80;;;;;;5012630;28;20482;-67
2023/09/08 08:52:29;;;;;;;6.13;5.33;;;24.00;59.80;;;;;;5012869;28;20539;-68
2023/09/08 08:54:55;;;;;;;5.73;5.10;;;24.00;59.80;;;;;;5011532;28;20920;-68
2023/09/08 08:57:22;;;;;;;6.50;5.90;;;24.00;60.40;;;;;;5012018;28;20407;-67
2023/09/08 08:59:50;;;;;;;6.17;5.57;;;24.00;59.80;;;;;;5011339;28;20447;-67
2023/09/08 09:02:17;;;;;;;6.67;6.07;;;24.00;59.80;;;;;;5012629;28;20416;-65
2023/09/08 09:04:43;;;;;;;6.13;5.50;;;24.00;59.80;;;;;;5012930;28;20485;-67
2023/09/08 09:07:09;;;;;;;6.30;5.70;;;24.00;59.80;;;;;;5012605;28;20423;-66
2023/09/08 09:09:35;;;;;;;6.40;5.50;;;24.00;59.90;;;;;;5012618;28;20474;-68
2023/09/08 09:12:02;;;;;;;6.60;5.83;;;24.00;59.80;;;;;;5011586;28;20854;-68
2023/09/08 09:14:32;;;;;;;5.87;5.47;;;24.00;59.80;;;;;;5012326;28;20653;-66
2023/09/08 09:16:57;;;;;;;6.00;5.50;;;24.00;59.80;;;;;;5018975;28;20425;-68
2023/09/08 09:19:31;;;;;;;6.23;5.70;;;24.00;59.80;;;;;;5031852;28;20454;-69
2023/09/08 09:21:58;;;;;;;5.80;5.30;;;24.10;59.90;;;;;;5031622;28;20183;-69
2023/09/08 09:24:38;;;;;;;5.70;5.13;;;24.00;59.80;;;;;;5032234;28;20434;-69
2023/09/08 09:27:07;;;;;;;5.90;5.30;;;24.00;59.80;;;;;;5031867;28;20426;-69
2023/09/08 09:29:34;;;;;;;5.13;4.67;;;24.10;59.90;;;;;;5031569;28;20549;-69
2023/09/08 09:32:09;;;;;;;6.13;5.53;;;24.00;59.80;;;;;;5030482;28;20454;-66
2023/09/08 09:34:35;;;;;;;6.67;5.97;;;24.10;59.90;;;;;;5030507;28;20421;-68
2023/09/08 09:37:01;;;;;;;5.23;4.80;;;24.10;59.90;;;;;;5031504;28;20410;-68
2023/09/08 09:39:27;;;;;;;5.70;5.20;;;24.10;59.90;;;;;;5031609;28;20675;-69
2023/09/08 09:41:57;;;;;;;5.03;4.63;;;24.10;59.80;;;;;;5031694;28;20226;-68
2023/09/08 09:44:24;;;;;;;6.67;6.07;;;24.10;59.90;;;;;;5031871;28;20234;-68
2023/09/08 09:46:52;;;;;;;5.60;5.10;;;24.10;59.90;;;;;;5031518;28;20399;-69
2023/09/08 09:49:18;;;;;;;5.50;5.00;;;24.10;59.90;;;;;;5030604;28;20506;-68
2023/09/08 09:51:45;;;;;;;7.73;5.50;;;24.10;59.90;;;;;;5031441;28;20414;-68
2023/09/08 09:54:11;;;;;;;6.73;6.13;;;24.10;59.90;;;;;;5030371;28;20410;-67
2023/09/08 09:56:38;;;;;;;6.53;6.03;;;24.10;59.90;;;;;;5031650;28;20418;-70
2023/09/08 09:59:05;;;;;;;5.67;5.20;;;24.10;59.90;;;;;;5031411;28;20437;-69
2023/09/08 10:01:32;;;;;;;6.37;5.17;;;24.10;59.80;;;;;;5031636;28;20414;-69
2023/09/08 10:03:58;;;;;;;6.27;5.63;;;24.10;59.80;;;;;;5031651;28;20413;-68
2023/09/08 10:06:26;;;;;;;8.90;5.73;;;24.10;59.80;;;;;;5029686;28;20963;-66
2023/09/08 10:08:54;;;;;;;11.00;6.00;;;24.10;59.80;;;;;;5031505;28;20501;-68
2023/09/08 10:11:21;;;;;;;8.10;5.83;;;24.10;59.70;;;;;;5013653;28;20418;-70
2023/09/08 10:13:51;;;;;;;5.90;5.10;;;24.10;59.80;;;;;;5030296;28;20427;-67
2023/09/08 10:16:20;;;;;;;7.33;4.93;;;24.10;59.80;;;;;;5031278;28;20410;-67
2023/09/08 10:18:49;;;;;;;5.83;5.00;;;24.10;59.80;;;;;;5031044;28;20437;-66
2023/09/08 10:21:16;;;;;;;9.70;5.80;;;24.10;59.80;;;;;;5031587;28;20410;-69
2023/09/08 10:24:08;;;;;;;5.80;5.33;;;24.10;59.80;;;;;;5029627;28;20415;-68
2023/09/08 10:26:36;;;;;;;6.20;5.10;;;24.10;59.80;;;;;;5031444;28;20772;-65
2023/09/08 10:29:02;;;;;;;5.90;5.40;;;24.10;59.80;;;;;;5030266;28;20476;-67
2023/09/08 10:31:29;;;;;;;8.63;5.57;;;24.20;59.90;;;;;;5030550;28;20410;-67
2023/09/08 10:33:56;;;;;;;9.40;5.40;;;24.10;59.80;;;;;;5020326;28;20425;-66
2023/09/08 10:36:24;;;;;;;6.33;5.40;;;24.10;59.80;;;;;;5020167;28;20409;-67
2023/09/08 10:38:51;;;;;;;7.20;5.63;;;24.10;59.80;;;;;;5018784;28;20447;-66
2023/09/08 10:41:17;;;;;;;5.50;5.00;;;24.10;59.80;;;;;;5019804;28;20418;-67
2023/09/08 10:43:46;;;;;;;5.43;4.93;;;24.10;59.70;;;;;;5021295;28;20414;-67
2023/09/08 10:46:23;;;;;;;6.50;5.83;;;24.10;59.80;;;;;;5020397;28;20711;-67
2023/09/08 10:48:48;;;;;;;8.90;5.10;;;24.20;59.70;;;;;;5018758;28;20577;-69
2023/09/08 10:51:14;;;;;;;9.27;5.60;;;24.10;59.70;;;;;;5009817;28;20825;-68
2023/09/08 10:53:40;;;;;;;6.00;5.07;;;24.10;59.60;;;;;;5025222;28;20184;-65
2023/09/08 10:56:06;;;;;;;4.80;4.40;;;24.10;59.60;;;;;;5030320;28;20505;-68
2023/09/08 10:58:35;;;;;;;6.70;4.77;;;24.10;59.50;;;;;;5030489;28;20743;-67
2023/09/08 11:01:02;;;;;;;5.87;5.07;;;24.20;59.60;;;;;;5030528;28;20258;-68
2023/09/08 11:03:42;;;;;;;7.63;5.50;;;24.20;59.60;;;;;;5030590;28;20420;-68
2023/09/08 11:06:09;;;;;;;6.20;4.97;;;24.20;59.50;;;;;;5029305;28;20813;-66
2023/09/08 11:08:38;;;;;;;6.60;5.20;;;24.20;59.50;;;;;;5030345;28;20474;-68
2023/09/08 11:11:03;;;;;;;5.30;4.60;;;24.20;59.50;;;;;;5030454;28;20497;-68
2023/09/08 11:13:29;;;;;;;5.90;4.73;;;24.20;59.50;;;;;;5030704;28;20894;-67
2023/09/08 11:15:55;;;;;;;8.40;5.20;;;24.20;59.50;;;;;;5029318;28;20242;-67
2023/09/08 11:18:31;;;;;;;5.03;4.63;;;24.20;59.40;;;;;;5030237;28;20230;-67
2023/09/08 11:20:58;;;;;;;5.47;4.97;;;24.20;59.50;;;;;;5030583;28;20434;-67
2023/09/08 11:23:24;;;;;;;5.13;4.63;;;24.20;59.40;;;;;;5030860;28;20760;-67
2023/09/08 11:25:51;;;;;;;8.37;5.00;;;24.20;59.40;;;;;;5030481;28;20942;-67
2023/09/08 11:28:17;;;;;;;5.60;5.10;;;24.20;59.40;;;;;;5030606;28;21016;-67
2023/09/08 11:30:46;;;;;;;5.80;5.30;;;24.20;59.40;;;;;;5030647;28;20425;-67
2023/09/08 11:33:19;;;;;;;5.17;4.70;;;24.20;59.40;;;;;;5030435;28;20464;-66
2023/09/08 11:35:48;;;;;;;5.47;5.07;;;24.20;59.40;;;;;;5030745;28;20410;-67
2023/09/08 11:38:14;;;;;;;6.77;6.07;;;24.20;59.30;;;;;;5034136;28;20938;-68
2023/09/08 11:40:40;;;;;;;11.00;5.40;;;24.20;59.40;;;;;;5034176;28;20467;-68
2023/09/08 11:43:06;;;;;;;5.60;5.10;;;24.20;60.00;;;;;;5032782;28;20433;-67
2023/09/08 11:45:35;;;;;;;6.60;5.53;;;24.20;59.40;;;;;;5034019;28;20417;-66
2023/09/08 11:48:01;;;;;;;5.67;4.93;;;24.20;59.30;;;;;;5033700;28;20445;-69
2023/09/08 11:50:26;;;;;;;5.20;4.73;;;24.20;59.40;;;;;;5033066;28;20469;-66
2023/09/08 11:52:54;;;;;;;5.67;5.17;;;24.20;59.30;;;;;;5031744;28;20426;-68
2023/09/08 11:55:21;;;;;;;6.10;5.50;;;24.20;59.40;;;;;;5032574;28;20271;-66
2023/09/08 11:57:50;;;;;;;5.77;5.13;;;24.20;59.30;;;;;;5032227;28;20788;-66
2023/09/08 12:00:18;;;;;;;5.43;4.93;;;24.20;59.30;;;;;;5033133;28;20468;-67
2023/09/08 12:02:45;;;;;;;5.23;4.83;;;24.20;59.90;;;;;;5033632;28;20429;-67
2023/09/08 12:05:24;;;;;;;5.90;5.30;;;24.20;59.30;;;;;;5033944;28;20465;-64
2023/09/08 12:07:54;;;;;;;5.30;4.80;;;24.20;59.30;;;;;;5033628;28;20398;-66
2023/09/08 12:10:21;;;;;;;5.30;4.90;;;24.20;59.30;;;;;;5032159;28;20469;-67
2023/09/08 12:12:55;;;;;;;5.00;4.47;;;24.30;59.40;;;;;;5033433;28;20441;-67
2023/09/08 12:15:34;;;;;;;5.23;4.73;;;24.30;59.40;;;;;;5033508;28;20871;-66
2023/09/08 12:18:01;;;;;;;5.50;5.10;;;24.30;59.40;;;;;;5033481;28;20425;-66
2023/09/08 12:20:28;;;;;;;5.57;4.93;;;24.30;59.40;;;;;;5033287;28;20426;-66
2023/09/08 12:22:54;;;;;;;6.13;5.53;;;24.30;59.40;;;;;;5033317;28;20428;-68
2023/09/08 12:25:20;;;;;;;5.97;5.30;;;24.30;59.50;;;;;;5033344;28;20418;-67
2023/09/08 12:27:49;;;;;;;6.13;5.63;;;24.30;59.50;;;;;;5033138;28;20176;-69
2023/09/08 12:30:19;;;;;;;5.27;4.80;;;24.30;59.50;;;;;;5033462;28;20461;-70
2023/09/08 12:32:49;;;;;;;6.07;5.47;;;24.30;59.50;;;;;;5033109;28;20489;-69
2023/09/08 12:35:24;;;;;;;5.10;4.60;;;24.30;59.50;;;;;;5031713;28;20445;-69
2023/09/08 12:38:08;;;;;;;5.83;5.00;;;24.40;59.60;;;;;;5026725;28;20419;-69
2023/09/08 12:40:38;;;;;;;5.93;5.43;;;24.40;59.60;;;;;;5023684;28;21103;-68
2023/09/08 12:43:04;;;;;;;7.43;4.87;;;24.40;59.60;;;;;;5022233;28;20422;-69